sensor_id;sensor_type;location;lat;lon;timestamp;P1;durP1;ratioP1;P2;durP2;ratioP2
44508;SDS011;30214;52.246;14.408;2024-01-15T00:00:44;18.05;;;11.05;;
44508;SDS011;30214;52.246;14.408;2024-01-15T00:03:12;17.27;;;10.50;;
44508;SDS011;30214;52.246;14.408;2024-01-15T00:05:39;16.75;;;10.30;;
44508;SDS011;30214;52.246;14.408;2024-01-15T00:08:06;19.35;;;11.23;;
44508;SDS011;30214;52.246;14.408;2024-01-15T00:10:33;17.38;;;10.90;;
44508;SDS011;30214;52.246;14.408;2024-01-15T00:13:00;17.33;;;11.25;;
44508;SDS011;30214;52.246;14.408;2024-01-15T00:15:28;19.85;;;11.77;;
44508;SDS011;30214;52.246;14.408;2024-01-15T00:17:56;18.40;;;11.30;;
44508;SDS011;30214;52.246;14.408;2024-01-15T00:20:24;18.42;;;10.45;;
44508;SDS011;30214;52.246;14.408;2024-01-15T00:22:51;18.65;;;11.70;;
44508;SDS011;30214;52.246;14.408;2024-01-15T00:25:18;18.00;;;11.05;;
44508;SDS011;30214;52.246;14.408;2024-01-15T00:27:45;21.98;;;12.75;;
44508;SDS011;30214;52.246;14.408;2024-01-15T00:30:13;20.38;;;11.70;;
44508;SDS011;30214;52.246;14.408;2024-01-15T00:32:40;19.48;;;10.93;;
44508;SDS011;30214;52.246;14.408;2024-01-15T00:35:09;21.10;;;12.80;;
44508;SDS011;30214;52.246;14.408;2024-01-15T00:37:36;23.08;;;12.80;;
44508;SDS011;30214;52.246;14.408;2024-01-15T00:40:05;21.48;;;12.02;;
44508;SDS011;30214;52.246;14.408;2024-01-15T00:42:36;22.60;;;12.93;;
44508;SDS011;30214;52.246;14.408;2024-01-15T00:45:04;21.42;;;11.57;;
44508;SDS011;30214;52.246;14.408;2024-01-15T00:47:36;22.35;;;12.05;;
44508;SDS011;30214;52.246;14.408;2024-01-15T00:50:03;20.88;;;12.60;;
44508;SDS011;30214;52.246;14.408;2024-01-15T00:52:33;25.65;;;12.45;;
44508;SDS011;30214;52.246;14.408;2024-01-15T00:55:01;19.40;;;11.50;;
44508;SDS011;30214;52.246;14.408;2024-01-15T00:57:28;17.85;;;11.23;;
44508;SDS011;30214;52.246;14.408;2024-01-15T00:59:55;17.13;;;10.60;;
44508;SDS011;30214;52.246;14.408;2024-01-15T01:02:22;19.77;;;11.18;;
44508;SDS011;30214;52.246;14.408;2024-01-15T01:04:50;19.27;;;11.02;;
44508;SDS011;30214;52.246;14.408;2024-01-15T01:07:17;19.63;;;11.10;;
44508;SDS011;30214;52.246;14.408;2024-01-15T01:09:46;17.65;;;10.05;;
44508;SDS011;30214;52.246;14.408;2024-01-15T01:12:14;19.10;;;10.73;;
44508;SDS011;30214;52.246;14.408;2024-01-15T01:14:41;18.52;;;10.63;;
44508;SDS011;30214;52.246;14.408;2024-01-15T01:17:08;19.95;;;10.73;;
44508;SDS011;30214;52.246;14.408;2024-01-15T01:19:36;19.48;;;11.65;;
44508;SDS011;30214;52.246;14.408;2024-01-15T01:22:03;18.58;;;11.27;;
44508;SDS011;30214;52.246;14.408;2024-01-15T01:24:40;17.45;;;9.90;;
44508;SDS011;30214;52.246;14.408;2024-01-15T01:27:08;14.77;;;9.18;;
44508;SDS011;30214;52.246;14.408;2024-01-15T01:29:35;15.82;;;8.73;;
44508;SDS011;30214;52.246;14.408;2024-01-15T01:32:04;14.20;;;8.38;;
44508;SDS011;30214;52.246;14.408;2024-01-15T01:34:32;20.52;;;11.02;;
44508;SDS011;30214;52.246;14.408;2024-01-15T01:37:01;19.35;;;10.35;;
44508;SDS011;30214;52.246;14.408;2024-01-15T01:39:29;17.27;;;10.50;;
44508;SDS011;30214;52.246;14.408;2024-01-15T01:41:56;19.10;;;11.20;;
44508;SDS011;30214;52.246;14.408;2024-01-15T01:44:25;17.23;;;10.85;;
44508;SDS011;30214;52.246;14.408;2024-01-15T01:46:52;21.17;;;11.10;;
44508;SDS011;30214;52.246;14.408;2024-01-15T01:49:19;17.92;;;10.57;;
44508;SDS011;30214;52.246;14.408;2024-01-15T01:51:48;15.90;;;10.60;;
44508;SDS011;30214;52.246;14.408;2024-01-15T01:54:15;17.38;;;10.13;;
44508;SDS011;30214;52.246;14.408;2024-01-15T01:56:43;17.90;;;9.95;;
44508;SDS011;30214;52.246;14.408;2024-01-15T01:59:12;16.38;;;10.15;;
44508;SDS011;30214;52.246;14.408;2024-01-15T02:01:41;14.82;;;9.20;;
44508;SDS011;30214;52.246;14.408;2024-01-15T02:04:09;18.27;;;11.05;;
44508;SDS011;30214;52.246;14.408;2024-01-15T02:06:37;17.48;;;10.95;;
44508;SDS011;30214;52.246;14.408;2024-01-15T02:09:04;15.55;;;9.50;;
44508;SDS011;30214;52.246;14.408;2024-01-15T02:11:32;18.15;;;9.77;;
44508;SDS011;30214;52.246;14.408;2024-01-15T02:13:59;15.70;;;10.05;;
44508;SDS011;30214;52.246;14.408;2024-01-15T02:16:26;15.68;;;9.98;;
44508;SDS011;30214;52.246;14.408;2024-01-15T02:18:55;16.42;;;10.38;;
44508;SDS011;30214;52.246;14.408;2024-01-15T02:21:22;15.80;;;9.45;;
44508;SDS011;30214;52.246;14.408;2024-01-15T02:23:52;18.55;;;8.88;;
44508;SDS011;30214;52.246;14.408;2024-01-15T02:26:20;19.73;;;10.13;;
44508;SDS011;30214;52.246;14.408;2024-01-15T02:28:47;15.75;;;9.05;;
44508;SDS011;30214;52.246;14.408;2024-01-15T02:31:15;17.10;;;9.30;;
44508;SDS011;30214;52.246;14.408;2024-01-15T02:33:42;16.05;;;9.68;;
44508;SDS011;30214;52.246;14.408;2024-01-15T02:36:11;15.27;;;10.65;;
44508;SDS011;30214;52.246;14.408;2024-01-15T02:38:38;15.82;;;8.85;;
44508;SDS011;30214;52.246;14.408;2024-01-15T02:41:07;13.82;;;9.10;;
44508;SDS011;30214;52.246;14.408;2024-01-15T02:43:34;16.27;;;9.98;;
44508;SDS011;30214;52.246;14.408;2024-01-15T02:46:01;13.88;;;8.88;;
44508;SDS011;30214;52.246;14.408;2024-01-15T02:48:28;15.77;;;9.98;;
44508;SDS011;30214;52.246;14.408;2024-01-15T02:50:55;16.15;;;9.60;;
44508;SDS011;30214;52.246;14.408;2024-01-15T02:53:23;15.80;;;9.85;;
44508;SDS011;30214;52.246;14.408;2024-01-15T02:55:50;15.75;;;9.70;;
44508;SDS011;30214;52.246;14.408;2024-01-15T02:58:18;14.00;;;9.20;;
44508;SDS011;30214;52.246;14.408;2024-01-15T03:00:46;19.95;;;10.10;;
44508;SDS011;30214;52.246;14.408;2024-01-15T03:03:13;15.88;;;9.02;;
44508;SDS011;30214;52.246;14.408;2024-01-15T03:05:40;17.25;;;8.60;;
44508;SDS011;30214;52.246;14.408;2024-01-15T03:08:07;12.52;;;7.78;;
44508;SDS011;30214;52.246;14.408;2024-01-15T03:10:34;15.60;;;9.80;;
44508;SDS011;30214;52.246;14.408;2024-01-15T03:13:01;14.57;;;8.65;;
44508;SDS011;30214;52.246;14.408;2024-01-15T03:15:30;15.73;;;9.52;;
44508;SDS011;30214;52.246;14.408;2024-01-15T03:17:57;14.38;;;8.23;;
44508;SDS011;30214;52.246;14.408;2024-01-15T03:20:25;11.90;;;8.00;;
44508;SDS011;30214;52.246;14.408;2024-01-15T03:22:52;16.30;;;9.55;;
44508;SDS011;30214;52.246;14.408;2024-01-15T03:25:19;14.38;;;8.20;;
44508;SDS011;30214;52.246;14.408;2024-01-15T03:27:46;10.90;;;6.45;;
44508;SDS011;30214;52.246;14.408;2024-01-15T03:30:14;13.15;;;7.43;;
44508;SDS011;30214;52.246;14.408;2024-01-15T03:32:43;13.05;;;7.88;;
44508;SDS011;30214;52.246;14.408;2024-01-15T03:35:10;14.55;;;9.63;;
44508;SDS011;30214;52.246;14.408;2024-01-15T03:37:37;15.85;;;8.15;;
44508;SDS011;30214;52.246;14.408;2024-01-15T03:40:05;14.20;;;8.27;;
44508;SDS011;30214;52.246;14.408;2024-01-15T03:42:34;13.80;;;7.38;;
44508;SDS011;30214;52.246;14.408;2024-01-15T03:45:01;12.63;;;6.80;;
44508;SDS011;30214;52.246;14.408;2024-01-15T03:47:29;14.85;;;7.85;;
44508;SDS011;30214;52.246;14.408;2024-01-15T03:49:58;15.18;;;8.48;;
44508;SDS011;30214;52.246;14.408;2024-01-15T03:52:25;12.50;;;6.22;;
44508;SDS011;30214;52.246;14.408;2024-01-15T03:54:53;13.48;;;7.47;;
44508;SDS011;30214;52.246;14.408;2024-01-15T03:57:20;12.23;;;6.63;;
44508;SDS011;30214;52.246;14.408;2024-01-15T03:59:47;13.25;;;7.40;;
44508;SDS011;30214;52.246;14.408;2024-01-15T04:02:14;13.52;;;8.23;;
44508;SDS011;30214;52.246;14.408;2024-01-15T04:04:42;12.27;;;7.15;;
44508;SDS011;30214;52.246;14.408;2024-01-15T04:07:11;13.32;;;7.78;;
44508;SDS011;30214;52.246;14.408;2024-01-15T04:09:38;13.57;;;7.65;;
44508;SDS011;30214;52.246;14.408;2024-01-15T04:12:06;10.32;;;6.13;;
44508;SDS011;30214;52.246;14.408;2024-01-15T04:14:34;13.43;;;7.75;;
44508;SDS011;30214;52.246;14.408;2024-01-15T04:17:01;14.65;;;8.55;;
44508;SDS011;30214;52.246;14.408;2024-01-15T04:19:28;12.82;;;7.72;;
44508;SDS011;30214;52.246;14.408;2024-01-15T04:21:56;12.13;;;7.63;;
44508;SDS011;30214;52.246;14.408;2024-01-15T04:24:25;13.90;;;8.27;;
44508;SDS011;30214;52.246;14.408;2024-01-15T04:26:52;12.95;;;8.05;;
44508;SDS011;30214;52.246;14.408;2024-01-15T04:29:20;15.05;;;8.52;;
44508;SDS011;30214;52.246;14.408;2024-01-15T04:31:47;13.77;;;7.45;;
44508;SDS011;30214;52.246;14.408;2024-01-15T04:34:14;15.80;;;7.85;;
44508;SDS011;30214;52.246;14.408;2024-01-15T04:36:44;14.13;;;8.98;;
44508;SDS011;30214;52.246;14.408;2024-01-15T04:39:11;13.93;;;7.40;;
44508;SDS011;30214;52.246;14.408;2024-01-15T04:41:40;14.48;;;7.82;;
44508;SDS011;30214;52.246;14.408;2024-01-15T04:44:07;13.65;;;7.32;;
44508;SDS011;30214;52.246;14.408;2024-01-15T04:46:34;15.23;;;7.95;;
44508;SDS011;30214;52.246;14.408;2024-01-15T04:49:01;12.07;;;8.05;;
44508;SDS011;30214;52.246;14.408;2024-01-15T04:51:29;15.38;;;7.95;;
44508;SDS011;30214;52.246;14.408;2024-01-15T04:53:56;17.65;;;7.40;;
44508;SDS011;30214;52.246;14.408;2024-01-15T04:56:23;15.90;;;8.30;;
44508;SDS011;30214;52.246;14.408;2024-01-15T04:58:55;11.38;;;6.90;;
44508;SDS011;30214;52.246;14.408;2024-01-15T05:01:22;12.43;;;7.43;;
44508;SDS011;30214;52.246;14.408;2024-01-15T05:03:49;17.83;;;8.15;;
44508;SDS011;30214;52.246;14.408;2024-01-15T05:06:16;13.80;;;7.45;;
44508;SDS011;30214;52.246;14.408;2024-01-15T05:08:43;16.00;;;7.07;;
44508;SDS011;30214;52.246;14.408;2024-01-15T05:11:13;12.75;;;7.80;;
44508;SDS011;30214;52.246;14.408;2024-01-15T05:13:40;13.70;;;7.82;;
44508;SDS011;30214;52.246;14.408;2024-01-15T05:16:09;14.05;;;7.57;;
44508;SDS011;30214;52.246;14.408;2024-01-15T05:18:36;12.48;;;7.50;;
44508;SDS011;30214;52.246;14.408;2024-01-15T05:21:03;12.05;;;7.80;;
44508;SDS011;30214;52.246;14.408;2024-01-15T05:23:30;12.75;;;7.38;;
44508;SDS011;30214;52.246;14.408;2024-01-15T05:25:58;16.58;;;9.02;;
44508;SDS011;30214;52.246;14.408;2024-01-15T05:28:25;13.68;;;7.80;;
44508;SDS011;30214;52.246;14.408;2024-01-15T05:30:52;15.65;;;8.48;;
44508;SDS011;30214;52.246;14.408;2024-01-15T05:33:22;13.55;;;7.75;;
44508;SDS011;30214;52.246;14.408;2024-01-15T05:35:49;15.20;;;8.00;;
44508;SDS011;30214;52.246;14.408;2024-01-15T05:38:16;12.95;;;6.80;;
44508;SDS011;30214;52.246;14.408;2024-01-15T05:40:43;15.68;;;7.30;;
44508;SDS011;30214;52.246;14.408;2024-01-15T05:43:11;13.93;;;7.35;;
44508;SDS011;30214;52.246;14.408;2024-01-15T05:45:38;17.90;;;8.38;;
44508;SDS011;30214;52.246;14.408;2024-01-15T05:48:09;21.17;;;6.93;;
44508;SDS011;30214;52.246;14.408;2024-01-15T05:50:37;13.85;;;7.78;;
44508;SDS011;30214;52.246;14.408;2024-01-15T05:53:04;13.32;;;6.93;;
44508;SDS011;30214;52.246;14.408;2024-01-15T05:55:32;18.70;;;7.45;;
44508;SDS011;30214;52.246;14.408;2024-01-15T05:57:59;16.27;;;7.68;;
44508;SDS011;30214;52.246;14.408;2024-01-15T06:00:26;14.93;;;6.53;;
44508;SDS011;30214;52.246;14.408;2024-01-15T06:02:53;16.60;;;7.32;;
44508;SDS011;30214;52.246;14.408;2024-01-15T06:05:20;13.95;;;7.78;;
44508;SDS011;30214;52.246;14.408;2024-01-15T06:07:49;23.08;;;8.77;;
44508;SDS011;30214;52.246;14.408;2024-01-15T06:10:16;13.95;;;8.15;;
44508;SDS011;30214;52.246;14.408;2024-01-15T06:12:43;15.02;;;7.78;;
44508;SDS011;30214;52.246;14.408;2024-01-15T06:15:11;15.23;;;7.53;;
44508;SDS011;30214;52.246;14.408;2024-01-15T06:17:41;15.57;;;7.15;;
44508;SDS011;30214;52.246;14.408;2024-01-15T06:20:08;15.18;;;7.60;;
44508;SDS011;30214;52.246;14.408;2024-01-15T06:22:37;14.55;;;7.03;;
44508;SDS011;30214;52.246;14.408;2024-01-15T06:25:07;13.63;;;7.60;;
44508;SDS011;30214;52.246;14.408;2024-01-15T06:27:35;14.05;;;7.07;;
44508;SDS011;30214;52.246;14.408;2024-01-15T06:30:02;12.10;;;5.95;;
44508;SDS011;30214;52.246;14.408;2024-01-15T06:32:30;11.77;;;6.85;;
44508;SDS011;30214;52.246;14.408;2024-01-15T06:34:57;12.60;;;7.20;;
44508;SDS011;30214;52.246;14.408;2024-01-15T06:37:25;13.82;;;6.82;;
44508;SDS011;30214;52.246;14.408;2024-01-15T06:39:52;15.07;;;6.70;;
44508;SDS011;30214;52.246;14.408;2024-01-15T06:42:21;12.50;;;6.00;;
44508;SDS011;30214;52.246;14.408;2024-01-15T06:44:49;13.15;;;6.38;;
44508;SDS011;30214;52.246;14.408;2024-01-15T06:47:16;12.07;;;6.00;;
44508;SDS011;30214;52.246;14.408;2024-01-15T06:49:44;13.85;;;6.45;;
44508;SDS011;30214;52.246;14.408;2024-01-15T06:52:11;12.57;;;6.28;;
44508;SDS011;30214;52.246;14.408;2024-01-15T06:54:38;16.83;;;7.43;;
44508;SDS011;30214;52.246;14.408;2024-01-15T06:57:05;13.95;;;7.78;;
44508;SDS011;30214;52.246;14.408;2024-01-15T06:59:34;15.13;;;7.32;;
44508;SDS011;30214;52.246;14.408;2024-01-15T07:02:01;15.20;;;7.18;;
44508;SDS011;30214;52.246;14.408;2024-01-15T07:04:29;13.60;;;7.43;;
44508;SDS011;30214;52.246;14.408;2024-01-15T07:06:56;13.15;;;6.55;;
44508;SDS011;30214;52.246;14.408;2024-01-15T07:09:23;13.95;;;7.30;;
44508;SDS011;30214;52.246;14.408;2024-01-15T07:11:50;16.63;;;6.90;;
44508;SDS011;30214;52.246;14.408;2024-01-15T07:14:17;15.38;;;7.28;;
44508;SDS011;30214;52.246;14.408;2024-01-15T07:16:46;13.45;;;6.72;;
44508;SDS011;30214;52.246;14.408;2024-01-15T07:19:13;16.13;;;6.53;;
44508;SDS011;30214;52.246;14.408;2024-01-15T07:21:40;12.95;;;6.35;;
44508;SDS011;30214;52.246;14.408;2024-01-15T07:24:08;15.70;;;6.38;;
44508;SDS011;30214;52.246;14.408;2024-01-15T07:26:35;17.10;;;6.30;;
44508;SDS011;30214;52.246;14.408;2024-01-15T07:29:02;13.85;;;6.10;;
44508;SDS011;30214;52.246;14.408;2024-01-15T07:31:30;16.50;;;6.57;;
44508;SDS011;30214;52.246;14.408;2024-01-15T07:33:59;11.63;;;6.03;;
44508;SDS011;30214;52.246;14.408;2024-01-15T07:36:30;12.43;;;6.75;;
44508;SDS011;30214;52.246;14.408;2024-01-15T07:38:57;12.52;;;5.95;;
44508;SDS011;30214;52.246;14.408;2024-01-15T07:41:24;11.80;;;5.32;;
44508;SDS011;30214;52.246;14.408;2024-01-15T07:43:51;11.65;;;5.82;;
44508;SDS011;30214;52.246;14.408;2024-01-15T07:46:19;11.82;;;6.07;;
44508;SDS011;30214;52.246;14.408;2024-01-15T07:48:46;9.85;;;5.60;;
44508;SDS011;30214;52.246;14.408;2024-01-15T07:51:14;13.55;;;5.70;;
44508;SDS011;30214;52.246;14.408;2024-01-15T07:53:42;9.25;;;5.15;;
44508;SDS011;30214;52.246;14.408;2024-01-15T07:56:09;14.10;;;5.25;;
44508;SDS011;30214;52.246;14.408;2024-01-15T07:58:37;13.80;;;6.15;;
44508;SDS011;30214;52.246;14.408;2024-01-15T08:01:05;11.35;;;4.70;;
44508;SDS011;30214;52.246;14.408;2024-01-15T08:03:32;14.25;;;5.45;;
44508;SDS011;30214;52.246;14.408;2024-01-15T08:06:00;14.55;;;5.00;;
44508;SDS011;30214;52.246;14.408;2024-01-15T08:08:28;16.90;;;5.32;;
44508;SDS011;30214;52.246;14.408;2024-01-15T08:10:56;11.88;;;4.93;;
44508;SDS011;30214;52.246;14.408;2024-01-15T08:13:23;13.38;;;4.35;;
44508;SDS011;30214;52.246;14.408;2024-01-15T08:15:53;14.48;;;4.70;;
44508;SDS011;30214;52.246;14.408;2024-01-15T08:18:21;14.52;;;5.03;;
44508;SDS011;30214;52.246;14.408;2024-01-15T08:20:48;13.93;;;4.93;;
44508;SDS011;30214;52.246;14.408;2024-01-15T08:23:16;11.73;;;4.05;;
44508;SDS011;30214;52.246;14.408;2024-01-15T08:25:46;10.57;;;3.88;;
44508;SDS011;30214;52.246;14.408;2024-01-15T08:28:13;10.00;;;3.75;;
44508;SDS011;30214;52.246;14.408;2024-01-15T08:30:40;10.68;;;4.03;;
44508;SDS011;30214;52.246;14.408;2024-01-15T08:33:07;10.32;;;3.72;;
44508;SDS011;30214;52.246;14.408;2024-01-15T08:35:34;9.48;;;3.58;;
44508;SDS011;30214;52.246;14.408;2024-01-15T08:38:02;17.63;;;4.60;;
44508;SDS011;30214;52.246;14.408;2024-01-15T08:40:30;12.35;;;3.55;;
44508;SDS011;30214;52.246;14.408;2024-01-15T08:42:58;9.85;;;2.90;;
44508;SDS011;30214;52.246;14.408;2024-01-15T08:45:27;8.70;;;3.30;;
44508;SDS011;30214;52.246;14.408;2024-01-15T08:47:54;13.07;;;3.30;;
44508;SDS011;30214;52.246;14.408;2024-01-15T08:50:21;13.60;;;3.63;;
44508;SDS011;30214;52.246;14.408;2024-01-15T08:52:48;11.48;;;3.17;;
44508;SDS011;30214;52.246;14.408;2024-01-15T08:55:16;11.63;;;3.20;;
44508;SDS011;30214;52.246;14.408;2024-01-15T08:57:43;14.27;;;3.38;;
44508;SDS011;30214;52.246;14.408;2024-01-15T09:00:12;12.30;;;3.80;;
44508;SDS011;30214;52.246;14.408;2024-01-15T09:02:40;7.00;;;2.50;;
44508;SDS011;30214;52.246;14.408;2024-01-15T09:05:08;11.60;;;3.03;;
44508;SDS011;30214;52.246;14.408;2024-01-15T09:07:35;9.23;;;3.17;;
44508;SDS011;30214;52.246;14.408;2024-01-15T09:10:03;8.85;;;3.38;;
44508;SDS011;30214;52.246;14.408;2024-01-15T09:12:31;15.82;;;6.28;;
44508;SDS011;30214;52.246;14.408;2024-01-15T09:14:59;8.25;;;3.10;;
44508;SDS011;30214;52.246;14.408;2024-01-15T09:17:31;8.02;;;2.63;;
44508;SDS011;30214;52.246;14.408;2024-01-15T09:19:58;6.03;;;2.53;;
44508;SDS011;30214;52.246;14.408;2024-01-15T09:22:26;13.52;;;3.20;;
44508;SDS011;30214;52.246;14.408;2024-01-15T09:24:54;9.85;;;4.65;;
44508;SDS011;30214;52.246;14.408;2024-01-15T09:27:21;7.30;;;2.53;;
44508;SDS011;30214;52.246;14.408;2024-01-15T09:29:51;6.43;;;3.15;;
44508;SDS011;30214;52.246;14.408;2024-01-15T09:32:18;9.73;;;3.00;;
44508;SDS011;30214;52.246;14.408;2024-01-15T09:34:47;6.45;;;2.63;;
44508;SDS011;30214;52.246;14.408;2024-01-15T09:37:14;10.25;;;3.22;;
44508;SDS011;30214;52.246;14.408;2024-01-15T09:39:41;10.18;;;3.00;;
44508;SDS011;30214;52.246;14.408;2024-01-15T09:42:08;6.68;;;2.72;;
44508;SDS011;30214;52.246;14.408;2024-01-15T09:44:38;6.43;;;2.83;;
44508;SDS011;30214;52.246;14.408;2024-01-15T09:47:06;4.90;;;2.08;;
44508;SDS011;30214;52.246;14.408;2024-01-15T09:49:35;9.32;;;3.13;;
44508;SDS011;30214;52.246;14.408;2024-01-15T09:52:05;6.97;;;2.85;;
44508;SDS011;30214;52.246;14.408;2024-01-15T09:54:34;6.85;;;2.72;;
44508;SDS011;30214;52.246;14.408;2024-01-15T09:57:02;8.50;;;2.90;;
44508;SDS011;30214;52.246;14.408;2024-01-15T09:59:31;8.82;;;3.03;;
44508;SDS011;30214;52.246;14.408;2024-01-15T10:02:02;8.63;;;2.80;;
44508;SDS011;30214;52.246;14.408;2024-01-15T10:04:31;6.78;;;2.40;;
44508;SDS011;30214;52.246;14.408;2024-01-15T10:06:58;9.30;;;3.88;;
44508;SDS011;30214;52.246;14.408;2024-01-15T10:09:32;10.57;;;3.40;;
44508;SDS011;30214;52.246;14.408;2024-01-15T10:11:59;9.63;;;2.58;;
44508;SDS011;30214;52.246;14.408;2024-01-15T10:14:27;10.93;;;3.70;;
44508;SDS011;30214;52.246;14.408;2024-01-15T10:16:55;8.40;;;2.97;;
44508;SDS011;30214;52.246;14.408;2024-01-15T10:19:22;7.88;;;2.88;;
44508;SDS011;30214;52.246;14.408;2024-01-15T10:21:50;7.88;;;2.65;;
44508;SDS011;30214;52.246;14.408;2024-01-15T10:24:18;10.15;;;3.78;;
44508;SDS011;30214;52.246;14.408;2024-01-15T10:26:48;5.60;;;2.53;;
44508;SDS011;30214;52.246;14.408;2024-01-15T10:29:15;8.30;;;3.17;;
44508;SDS011;30214;52.246;14.408;2024-01-15T10:31:43;8.38;;;3.42;;
44508;SDS011;30214;52.246;14.408;2024-01-15T10:34:11;11.50;;;3.03;;
44508;SDS011;30214;52.246;14.408;2024-01-15T10:36:40;10.90;;;3.05;;
44508;SDS011;30214;52.246;14.408;2024-01-15T10:39:08;9.07;;;3.10;;
44508;SDS011;30214;52.246;14.408;2024-01-15T10:41:36;6.53;;;2.83;;
44508;SDS011;30214;52.246;14.408;2024-01-15T10:44:03;8.95;;;3.28;;
44508;SDS011;30214;52.246;14.408;2024-01-15T10:46:31;8.88;;;3.30;;
44508;SDS011;30214;52.246;14.408;2024-01-15T10:49:03;8.77;;;3.22;;
44508;SDS011;30214;52.246;14.408;2024-01-15T10:51:31;8.73;;;3.25;;
44508;SDS011;30214;52.246;14.408;2024-01-15T10:53:59;9.88;;;3.80;;
44508;SDS011;30214;52.246;14.408;2024-01-15T10:56:31;9.85;;;3.58;;
44508;SDS011;30214;52.246;14.408;2024-01-15T10:59:01;12.68;;;3.33;;
44508;SDS011;30214;52.246;14.408;2024-01-15T11:01:30;11.63;;;3.83;;
44508;SDS011;30214;52.246;14.408;2024-01-15T11:04:00;8.30;;;3.60;;
44508;SDS011;30214;52.246;14.408;2024-01-15T11:06:41;7.85;;;3.35;;
44508;SDS011;30214;52.246;14.408;2024-01-15T11:09:11;9.82;;;4.18;;
44508;SDS011;30214;52.246;14.408;2024-01-15T11:11:40;11.77;;;4.13;;
44508;SDS011;30214;52.246;14.408;2024-01-15T11:14:10;12.18;;;4.70;;
44508;SDS011;30214;52.246;14.408;2024-01-15T11:16:53;12.88;;;3.75;;
44508;SDS011;30214;52.246;14.408;2024-01-15T11:19:22;8.23;;;4.38;;
44508;SDS011;30214;52.246;14.408;2024-01-15T11:21:49;7.38;;;3.85;;
44508;SDS011;30214;52.246;14.408;2024-01-15T11:24:35;8.15;;;3.90;;
44508;SDS011;30214;52.246;14.408;2024-01-15T11:27:04;7.80;;;4.03;;
44508;SDS011;30214;52.246;14.408;2024-01-15T11:29:33;8.05;;;3.20;;
44508;SDS011;30214;52.246;14.408;2024-01-15T11:32:04;8.43;;;4.20;;
44508;SDS011;30214;52.246;14.408;2024-01-15T11:34:52;11.13;;;4.03;;
44508;SDS011;30214;52.246;14.408;2024-01-15T11:37:26;9.55;;;3.50;;
44508;SDS011;30214;52.246;14.408;2024-01-15T11:40:02;9.60;;;3.95;;
44508;SDS011;30214;52.246;14.408;2024-01-15T11:42:30;6.57;;;3.00;;
44508;SDS011;30214;52.246;14.408;2024-01-15T11:44:59;6.18;;;2.60;;
44508;SDS011;30214;52.246;14.408;2024-01-15T11:47:45;4.53;;;2.25;;
44508;SDS011;30214;52.246;14.408;2024-01-15T11:50:36;11.40;;;3.65;;
44508;SDS011;30214;52.246;14.408;2024-01-15T11:53:11;10.65;;;2.80;;
44508;SDS011;30214;52.246;14.408;2024-01-15T11:55:44;11.82;;;2.80;;
44508;SDS011;30214;52.246;14.408;2024-01-15T11:58:13;9.13;;;4.20;;
44508;SDS011;30214;52.246;14.408;2024-01-15T12:00:44;5.63;;;2.67;;
44508;SDS011;30214;52.246;14.408;2024-01-15T12:03:14;7.13;;;2.80;;
44508;SDS011;30214;52.246;14.408;2024-01-15T12:05:42;6.30;;;2.72;;
44508;SDS011;30214;52.246;14.408;2024-01-15T12:08:08;5.25;;;2.55;;
44508;SDS011;30214;52.246;14.408;2024-01-15T12:10:36;6.25;;;2.50;;
44508;SDS011;30214;52.246;14.408;2024-01-15T12:13:07;8.48;;;2.60;;
44508;SDS011;30214;52.246;14.408;2024-01-15T12:15:39;3.85;;;1.73;;
44508;SDS011;30214;52.246;14.408;2024-01-15T12:18:09;7.28;;;2.22;;
44508;SDS011;30214;52.246;14.408;2024-01-15T12:20:39;7.50;;;2.10;;
44508;SDS011;30214;52.246;14.408;2024-01-15T12:23:07;5.13;;;2.20;;
44508;SDS011;30214;52.246;14.408;2024-01-15T12:25:35;5.22;;;1.58;;
44508;SDS011;30214;52.246;14.408;2024-01-15T12:28:03;6.82;;;2.50;;
44508;SDS011;30214;52.246;14.408;2024-01-15T12:30:33;4.38;;;1.83;;
44508;SDS011;30214;52.246;14.408;2024-01-15T12:33:02;4.53;;;2.15;;
44508;SDS011;30214;52.246;14.408;2024-01-15T12:35:33;5.53;;;2.30;;
44508;SDS011;30214;52.246;14.408;2024-01-15T12:38:01;4.25;;;1.70;;
44508;SDS011;30214;52.246;14.408;2024-01-15T12:40:30;6.75;;;2.00;;
44508;SDS011;30214;52.246;14.408;2024-01-15T12:42:59;3.85;;;1.80;;
44508;SDS011;30214;52.246;14.408;2024-01-15T12:45:28;5.93;;;2.20;;
44508;SDS011;30214;52.246;14.408;2024-01-15T12:47:58;6.75;;;2.05;;
44508;SDS011;30214;52.246;14.408;2024-01-15T12:50:25;6.70;;;2.53;;
44508;SDS011;30214;52.246;14.408;2024-01-15T12:52:54;3.95;;;1.80;;
44508;SDS011;30214;52.246;14.408;2024-01-15T12:55:22;6.65;;;2.70;;
44508;SDS011;30214;52.246;14.408;2024-01-15T12:57:49;9.95;;;3.08;;
44508;SDS011;30214;52.246;14.408;2024-01-15T13:00:19;5.22;;;2.55;;
44508;SDS011;30214;52.246;14.408;2024-01-15T13:02:46;3.38;;;2.25;;
44508;SDS011;30214;52.246;14.408;2024-01-15T13:05:15;5.60;;;2.33;;
44508;SDS011;30214;52.246;14.408;2024-01-15T13:07:43;4.80;;;2.30;;
44508;SDS011;30214;52.246;14.408;2024-01-15T13:10:12;6.63;;;2.85;;
44508;SDS011;30214;52.246;14.408;2024-01-15T13:12:39;4.28;;;1.88;;
44508;SDS011;30214;52.246;14.408;2024-01-15T13:15:07;4.90;;;2.50;;
44508;SDS011;30214;52.246;14.408;2024-01-15T13:17:36;3.83;;;2.35;;
44508;SDS011;30214;52.246;14.408;2024-01-15T13:20:05;5.32;;;2.15;;
44508;SDS011;30214;52.246;14.408;2024-01-15T13:22:36;5.57;;;2.10;;
44508;SDS011;30214;52.246;14.408;2024-01-15T13:25:05;4.28;;;1.67;;
44508;SDS011;30214;52.246;14.408;2024-01-15T13:27:35;4.28;;;1.90;;
44508;SDS011;30214;52.246;14.408;2024-01-15T13:30:03;4.82;;;1.70;;
44508;SDS011;30214;52.246;14.408;2024-01-15T13:32:33;6.20;;;1.85;;
44508;SDS011;30214;52.246;14.408;2024-01-15T13:35:02;4.22;;;1.48;;
44508;SDS011;30214;52.246;14.408;2024-01-15T13:37:34;4.05;;;1.58;;
44508;SDS011;30214;52.246;14.408;2024-01-15T13:40:03;3.83;;;1.45;;
44508;SDS011;30214;52.246;14.408;2024-01-15T13:42:34;4.93;;;1.50;;
44508;SDS011;30214;52.246;14.408;2024-01-15T13:45:03;5.13;;;1.33;;
44508;SDS011;30214;52.246;14.408;2024-01-15T13:47:32;3.13;;;1.52;;
44508;SDS011;30214;52.246;14.408;2024-01-15T13:50:00;3.15;;;1.25;;
44508;SDS011;30214;52.246;14.408;2024-01-15T13:52:28;2.55;;;1.20;;
44508;SDS011;30214;52.246;14.408;2024-01-15T13:54:55;3.47;;;1.20;;
44508;SDS011;30214;52.246;14.408;2024-01-15T13:57:23;6.15;;;2.17;;
44508;SDS011;30214;52.246;14.408;2024-01-15T13:59:52;2.40;;;1.17;;
44508;SDS011;30214;52.246;14.408;2024-01-15T14:02:20;3.15;;;1.10;;
44508;SDS011;30214;52.246;14.408;2024-01-15T14:04:47;2.42;;;1.02;;
44508;SDS011;30214;52.246;14.408;2024-01-15T14:07:14;3.42;;;1.10;;
44508;SDS011;30214;52.246;14.408;2024-01-15T14:09:41;3.55;;;1.10;;
44508;SDS011;30214;52.246;14.408;2024-01-15T14:12:09;5.82;;;1.33;;
44508;SDS011;30214;52.246;14.408;2024-01-15T14:14:36;2.55;;;1.08;;
44508;SDS011;30214;52.246;14.408;2024-01-15T14:17:06;3.80;;;1.40;;
44508;SDS011;30214;52.246;14.408;2024-01-15T14:19:34;1.83;;;1.10;;
44508;SDS011;30214;52.246;14.408;2024-01-15T14:22:02;3.20;;;1.30;;
44508;SDS011;30214;52.246;14.408;2024-01-15T14:24:29;3.25;;;1.20;;
44508;SDS011;30214;52.246;14.408;2024-01-15T14:26:57;2.25;;;1.17;;
44508;SDS011;30214;52.246;14.408;2024-01-15T14:29:25;4.70;;;1.30;;